createdAt,value
2018-12-17T00:01:55.437Z,91.50
2018-12-17T00:04:26.288Z,91.50
2018-12-17T00:06:57.169Z,91.50
2018-12-17T00:09:26.024Z,91.60
2018-12-17T00:11:55.002Z,91.40
2018-12-17T00:14:23.871Z,91.40
2018-12-17T00:16:52.762Z,91.30
2018-12-17T00:19:21.818Z,91.40
2018-12-17T00:21:50.732Z,91.40
2018-12-17T00:24:19.699Z,91.40
2018-12-17T00:26:48.629Z,91.40
2018-12-17T00:29:17.569Z,91.30
2018-12-17T00:31:46.437Z,91.40
2018-12-17T00:34:15.440Z,91.70
2018-12-17T00:36:44.386Z,91.30
2018-12-17T00:39:13.365Z,91.30
2018-12-17T00:41:42.262Z,91.20
2018-12-17T00:44:11.132Z,91.30
2018-12-17T00:46:39.972Z,91.30
2018-12-17T00:49:08.885Z,91.30
2018-12-17T00:51:37.967Z,91.30
2018-12-17T00:54:06.844Z,91.30
2018-12-17T00:56:35.717Z,91.30
2018-12-17T00:59:04.580Z,91.30
2018-12-17T01:01:33.429Z,91.30
2018-12-17T01:04:02.303Z,91.40
2018-12-17T01:06:31.204Z,91.40
2018-12-17T01:09:00.070Z,91.30
2018-12-17T01:11:28.969Z,91.30
2018-12-17T01:13:57.856Z,91.30
2018-12-17T01:16:26.764Z,91.30
2018-12-17T01:18:55.648Z,91.30
2018-12-17T01:21:25.156Z,91.30
2018-12-17T01:23:54.191Z,91.30
2018-12-17T01:26:23.415Z,91.30
2018-12-17T01:28:52.556Z,91.30
2018-12-17T01:31:22.532Z,91.30
2018-12-17T01:33:51.410Z,91.40
2018-12-17T01:36:20.385Z,91.40
2018-12-17T01:38:49.250Z,91.40
2018-12-17T01:41:18.118Z,91.50
2018-12-17T01:43:47.104Z,91.50
2018-12-17T01:46:16.124Z,91.40
2018-12-17T01:48:45.004Z,91.50
2018-12-17T01:51:13.947Z,91.40
2018-12-17T01:53:42.820Z,91.40
2018-12-17T01:56:11.683Z,91.40
2018-12-17T01:58:40.591Z,91.40
2018-12-17T02:01:09.584Z,91.40
2018-12-17T02:03:38.520Z,91.40
2018-12-17T02:06:07.428Z,91.50
2018-12-17T02:08:36.408Z,91.40
2018-12-17T02:11:05.447Z,91.40
2018-12-17T02:13:34.452Z,91.50
2018-12-17T02:16:03.321Z,91.40
2018-12-17T02:18:32.181Z,91.60
2018-12-17T02:21:01.116Z,91.50
2018-12-17T02:23:29.985Z,91.60
2018-12-17T02:25:58.890Z,91.70
2018-12-17T02:28:28.851Z,91.40
2018-12-17T02:30:57.724Z,91.40
2018-12-17T02:33:26.614Z,91.40
2018-12-17T02:35:55.585Z,91.50
2018-12-17T02:38:24.474Z,91.40
2018-12-17T02:40:53.441Z,91.40
2018-12-17T02:43:22.428Z,91.40
2018-12-17T02:45:51.301Z,91.40
2018-12-17T02:48:20.199Z,91.40
2018-12-17T02:50:49.184Z,91.40
2018-12-17T02:53:18.083Z,91.40
2018-12-17T02:55:47.066Z,91.40
2018-12-17T02:58:16.023Z,91.60
2018-12-17T03:00:44.987Z,91.60
2018-12-17T03:03:13.936Z,91.50
2018-12-17T03:05:42.857Z,91.40
2018-12-17T03:08:11.787Z,91.50
2018-12-17T03:10:40.712Z,91.50
2018-12-17T03:13:09.690Z,91.40
2018-12-17T03:15:38.618Z,91.40
2018-12-17T03:18:07.530Z,91.50
2018-12-17T03:20:36.462Z,91.50
2018-12-17T03:23:05.373Z,91.50
2018-12-17T03:25:34.274Z,91.50
2018-12-17T03:28:03.232Z,91.60
2018-12-17T03:30:32.175Z,91.60
2018-12-17T03:33:01.136Z,91.60
2018-12-17T03:35:30.104Z,91.60
2018-12-17T03:37:59.030Z,91.60
2018-12-17T03:40:27.916Z,91.40
2018-12-17T03:42:56.808Z,91.50
2018-12-17T03:45:25.692Z,91.40
2018-12-17T03:47:54.586Z,91.50
2018-12-17T03:50:23.485Z,91.60
2018-12-17T03:52:52.542Z,91.60
2018-12-17T03:55:21.478Z,91.60
2018-12-17T03:57:50.403Z,91.70
2018-12-17T04:00:19.266Z,91.70
2018-12-17T04:02:48.205Z,91.70
2018-12-17T04:05:17.133Z,91.50
2018-12-17T04:07:46.004Z,91.60
2018-12-17T04:10:14.955Z,91.50
2018-12-17T04:12:44.349Z,91.50
2018-12-17T04:15:14.310Z,91.60
2018-12-17T04:17:43.177Z,91.40
2018-12-17T04:20:12.052Z,91.50
2018-12-17T04:22:40.950Z,91.50
2018-12-17T04:25:09.877Z,91.50
2018-12-17T04:27:38.834Z,91.50
2018-12-17T04:30:07.956Z,91.50
2018-12-17T04:32:36.900Z,91.50
2018-12-17T04:35:05.853Z,91.40
2018-12-17T04:37:34.742Z,91.40
2018-12-17T04:40:04.527Z,91.40
2018-12-17T04:42:33.417Z,91.40
2018-12-17T04:45:02.339Z,91.40
2018-12-17T04:47:31.305Z,91.40
2018-12-17T04:50:00.183Z,91.30
2018-12-17T04:52:29.105Z,91.40
2018-12-17T04:54:58.050Z,91.40
2018-12-17T04:57:26.929Z,91.40
2018-12-17T04:59:55.825Z,91.40
2018-12-17T05:02:24.693Z,91.60
2018-12-17T05:04:53.726Z,91.40
2018-12-17T05:07:22.629Z,91.30
2018-12-17T05:09:53.824Z,91.20
2018-12-17T05:12:22.892Z,91.40
2018-12-17T05:14:51.854Z,91.40
2018-12-17T05:17:23.638Z,91.40
2018-12-17T05:19:53.016Z,91.50
2018-12-17T05:22:22.040Z,91.50
2018-12-17T05:24:50.920Z,91.50
2018-12-17T05:27:19.988Z,91.50
2018-12-17T05:29:48.901Z,91.40
2018-12-17T05:32:17.782Z,91.40
2018-12-17T05:34:46.697Z,91.40
2018-12-17T05:37:15.819Z,91.40
2018-12-17T05:39:44.752Z,91.40
2018-12-17T05:42:13.763Z,91.30
2018-12-17T05:44:42.641Z,91.30
2018-12-17T05:47:11.526Z,91.30
2018-12-17T05:49:40.653Z,91.30
2018-12-17T05:52:09.644Z,91.30
2018-12-17T05:54:38.508Z,91.60
2018-12-17T05:57:07.396Z,91.30
2018-12-17T05:59:36.286Z,91.30
2018-12-17T06:02:05.291Z,91.30
2018-12-17T06:04:34.195Z,91.20
2018-12-17T06:07:03.093Z,91.30
2018-12-17T06:09:32.190Z,91.40
2018-12-17T06:12:01.154Z,91.40
2018-12-17T06:14:30.033Z,91.40
2018-12-17T06:16:58.935Z,91.40
2018-12-17T06:19:27.920Z,91.40
2018-12-17T06:21:56.815Z,91.40
2018-12-17T06:24:25.741Z,91.30
2018-12-17T06:26:54.615Z,91.30
2018-12-17T06:29:23.581Z,91.30
2018-12-17T06:31:52.478Z,91.30
2018-12-17T06:34:21.470Z,91.30
2018-12-17T06:36:50.360Z,91.30
2018-12-17T06:39:19.293Z,91.30
2018-12-17T06:41:48.323Z,91.30
2018-12-17T06:44:17.313Z,91.30
2018-12-17T06:46:46.285Z,91.30
2018-12-17T06:49:15.243Z,91.30
2018-12-17T06:51:44.167Z,91.30
2018-12-17T06:54:13.057Z,91.30
2018-12-17T06:56:41.935Z,91.20
2018-12-17T06:59:10.844Z,91.20
2018-12-17T07:01:40.005Z,91.20
2018-12-17T07:04:09.055Z,91.30
2018-12-17T07:06:37.948Z,91.30
2018-12-17T07:09:07.316Z,91.30
2018-12-17T07:11:36.214Z,91.40
2018-12-17T07:14:05.100Z,91.30
2018-12-17T07:16:34.046Z,91.40
2018-12-17T07:19:02.988Z,91.50
2018-12-17T07:21:31.939Z,91.50
2018-12-17T07:24:00.967Z,91.50
2018-12-17T07:26:29.860Z,91.40
2018-12-17T07:28:58.799Z,91.40
2018-12-17T07:31:27.780Z,91.40
2018-12-17T07:33:56.928Z,91.40
2018-12-17T07:36:25.857Z,91.40
2018-12-17T07:38:54.791Z,91.40
2018-12-17T07:41:23.722Z,91.40
2018-12-17T07:43:52.698Z,91.40
2018-12-17T07:46:21.692Z,91.40
2018-12-17T07:48:50.680Z,91.40
2018-12-17T07:51:19.577Z,91.40
2018-12-17T07:57:13.611Z,91.40
2018-12-17T07:59:42.489Z,91.50
2018-12-17T08:02:11.481Z,91.40
2018-12-17T08:04:59.323Z,91.40
2018-12-17T08:07:28.221Z,91.30
2018-12-17T08:10:16.574Z,91.40
2018-12-17T08:12:45.613Z,91.40
2018-12-17T08:15:14.521Z,91.40
2018-12-17T08:17:43.452Z,91.40
2018-12-17T08:20:12.533Z,91.50
2018-12-17T08:22:41.925Z,91.40
2018-12-17T08:25:10.933Z,91.40
2018-12-17T08:27:39.909Z,91.40
2018-12-17T08:30:09.018Z,91.40
2018-12-17T08:32:37.958Z,91.40
2018-12-17T08:35:10.271Z,91.50
2018-12-17T08:37:42.690Z,91.50
2018-12-17T08:40:11.596Z,91.60
2018-12-17T08:43:12.393Z,91.50
2018-12-17T08:45:41.272Z,91.70
2018-12-17T08:48:53.380Z,91.80
2018-12-17T08:51:22.278Z,91.70
2018-12-17T08:53:51.144Z,91.50
2018-12-17T08:56:20.128Z,91.50
2018-12-17T08:58:50.006Z,91.50
2018-12-17T09:01:18.915Z,91.40
2018-12-17T09:03:47.909Z,91.60
2018-12-17T09:13:23.825Z,91.60
2018-12-17T09:15:52.734Z,91.50
2018-12-17T09:18:21.603Z,91.40
2018-12-17T09:20:50.514Z,91.40
2018-12-17T09:23:19.470Z,91.40
2018-12-17T09:25:48.385Z,91.30
2018-12-17T09:28:17.337Z,91.30
2018-12-17T09:30:46.261Z,91.30
2018-12-17T09:33:16.186Z,91.10
2018-12-17T09:35:45.127Z,91.10
2018-12-17T09:38:14.056Z,91.00
2018-12-17T09:40:42.964Z,91.10
2018-12-17T09:43:11.886Z,90.80
2018-12-17T09:45:40.905Z,90.80
2018-12-17T09:48:09.845Z,90.70
2018-12-17T09:50:38.932Z,90.80
2018-12-17T09:53:07.864Z,90.80
2018-12-17T09:55:36.805Z,90.80
2018-12-17T09:58:05.809Z,90.80
2018-12-17T10:00:34.811Z,90.70
2018-12-17T10:03:03.812Z,90.70
2018-12-17T10:05:32.759Z,90.70
2018-12-17T10:08:01.765Z,90.50
2018-12-17T10:10:30.628Z,90.60
2018-12-17T10:12:59.548Z,90.50
2018-12-17T10:15:28.766Z,90.50
2018-12-17T10:17:57.640Z,90.50
2018-12-17T10:20:26.513Z,90.70
2018-12-17T10:22:55.417Z,90.70
2018-12-17T10:25:24.351Z,90.80
2018-12-17T10:27:53.250Z,90.70
2018-12-17T10:30:22.136Z,90.80
2018-12-17T10:32:51.033Z,90.70
2018-12-17T10:35:20.020Z,90.70
2018-12-17T10:37:48.910Z,90.70
2018-12-17T10:40:17.820Z,90.70
2018-12-17T10:42:46.798Z,90.40
2018-12-17T10:45:15.704Z,90.40
2018-12-17T10:47:44.623Z,90.50
2018-12-17T10:53:20.060Z,90.10
2018-12-17T10:55:48.998Z,89.90
2018-12-17T10:58:17.920Z,89.30
2018-12-17T11:00:52.051Z,89.10
2018-12-17T11:03:26.212Z,88.70
2018-12-17T11:05:56.323Z,88.20
2018-12-17T11:08:25.284Z,88.00
2018-12-17T11:10:54.228Z,88.10
2018-12-17T11:13:23.141Z,87.30
2018-12-17T11:15:52.043Z,87.20
2018-12-17T11:18:21.893Z,87.00
2018-12-17T11:20:50.776Z,86.80
2018-12-17T11:23:19.858Z,86.80
2018-12-17T11:25:48.732Z,87.50
2018-12-17T11:28:17.663Z,87.70
2018-12-17T11:30:47.437Z,88.10
2018-12-17T11:33:26.893Z,87.90
2018-12-17T11:36:03.428Z,88.20
2018-12-17T11:38:33.166Z,88.90
2018-12-17T11:41:02.123Z,88.70
2018-12-17T11:43:31.024Z,88.80
2018-12-17T11:46:06.338Z,88.90
2018-12-17T11:48:40.381Z,89.40
2018-12-17T11:57:38.779Z,88.90
2018-12-17T12:00:13.274Z,88.70
2018-12-17T12:02:46.343Z,89.10
2018-12-17T12:05:21.086Z,88.40
2018-12-17T12:07:53.596Z,88.40
2018-12-17T12:10:28.176Z,87.90
2018-12-17T12:13:00.717Z,88.10
2018-12-17T12:18:47.854Z,88.30
2018-12-17T12:21:19.961Z,88.20
2018-12-17T12:23:51.920Z,88.90
2018-12-17T12:26:24.062Z,88.10
2018-12-17T12:28:56.099Z,87.70
2018-12-17T12:34:05.412Z,88.40
2018-12-17T12:36:36.919Z,88.10
2018-12-17T12:39:09.271Z,87.90
2018-12-17T12:41:44.570Z,87.80
2018-12-17T12:44:15.163Z,87.90
2018-12-17T12:46:44.067Z,88.00
2018-12-17T12:49:13.115Z,88.20
2018-12-17T12:51:42.015Z,88.50
2018-12-17T12:54:10.907Z,88.90
2018-12-17T12:56:39.927Z,88.70
2018-12-17T12:59:12.934Z,88.50
2018-12-17T13:01:41.815Z,88.70
2018-12-17T13:04:10.886Z,88.70
2018-12-17T13:06:39.770Z,89.20
2018-12-17T13:09:14.206Z,89.10
2018-12-17T13:11:43.166Z,88.80
2018-12-17T13:14:12.099Z,88.80
2018-12-17T13:16:41.008Z,89.00
2018-12-17T13:19:13.214Z,88.90
2018-12-17T13:21:43.062Z,88.30
2018-12-17T13:36:37.855Z,87.90
2018-12-17T13:39:07.467Z,88.10
2018-12-17T13:41:37.426Z,88.10
2018-12-17T13:44:06.588Z,88.00
2018-12-17T13:46:37.147Z,87.90
2018-12-17T13:49:06.269Z,88.10
2018-12-17T13:51:37.188Z,88.40
2018-12-17T13:54:06.060Z,88.50
2018-12-17T13:56:34.954Z,88.70
2018-12-17T13:59:04.016Z,88.70
2018-12-17T14:01:33.023Z,89.00
2018-12-17T14:04:02.207Z,89.10
2018-12-17T14:06:31.036Z,89.30
2018-12-17T14:08:59.908Z,89.20
2018-12-17T14:11:28.788Z,89.40
2018-12-17T14:13:57.686Z,89.30
2018-12-17T14:16:32.326Z,89.60
2018-12-17T14:19:06.422Z,89.40
2018-12-17T14:21:40.707Z,89.10
2018-12-17T14:24:09.724Z,89.30
2018-12-17T14:26:38.616Z,89.30
2018-12-17T14:29:07.528Z,89.50
2018-12-17T14:31:36.387Z,89.40
2018-12-17T14:34:05.416Z,89.10
2018-12-17T14:36:34.296Z,88.80
2018-12-17T14:39:05.289Z,88.70
2018-12-17T14:41:35.304Z,88.40
2018-12-17T14:44:10.285Z,88.50
2018-12-17T14:46:44.739Z,88.50
2018-12-17T14:49:13.802Z,88.80
2018-12-17T14:51:42.676Z,89.00
2018-12-17T14:54:11.577Z,89.10
2018-12-17T14:56:40.551Z,89.20
2018-12-17T14:59:11.495Z,89.20
2018-12-17T15:01:41.823Z,89.90
2018-12-17T15:04:12.646Z,89.50
2018-12-17T15:06:41.521Z,89.70
2018-12-17T15:09:10.547Z,89.90
2018-12-17T15:11:39.472Z,89.90
2018-12-17T15:14:08.488Z,89.90
2018-12-17T15:16:37.429Z,90.00
2018-12-17T15:19:06.329Z,90.00
2018-12-17T15:21:35.211Z,90.10
2018-12-17T15:24:04.312Z,90.10
2018-12-17T15:26:34.857Z,90.30
2018-12-17T15:29:03.921Z,90.10
2018-12-17T15:31:32.864Z,90.10
2018-12-17T15:34:01.771Z,90.20
2018-12-17T15:36:30.653Z,90.20
2018-12-17T15:38:59.517Z,90.20
2018-12-17T15:41:28.377Z,90.30
2018-12-17T15:43:57.233Z,90.30
2018-12-17T15:46:26.113Z,90.30
2018-12-17T15:48:55.024Z,90.20
2018-12-17T15:51:23.893Z,90.60
2018-12-17T15:53:52.744Z,90.20
2018-12-17T15:56:21.607Z,90.30
2018-12-17T15:58:50.513Z,90.30
2018-12-17T16:01:19.403Z,90.30
2018-12-17T16:03:48.496Z,90.30
2018-12-17T16:06:17.375Z,90.30
2018-12-17T16:08:46.242Z,90.40
2018-12-17T16:11:15.096Z,90.50
2018-12-17T16:13:44.055Z,90.50
2018-12-17T16:16:12.943Z,90.50
2018-12-17T16:18:42.088Z,90.40
2018-12-17T16:21:11.054Z,90.40
2018-12-17T16:23:39.969Z,90.40
2018-12-17T16:26:08.914Z,90.30
2018-12-17T16:28:37.803Z,90.60
2018-12-17T16:31:06.680Z,90.40
2018-12-17T16:33:35.599Z,90.30
2018-12-17T16:36:04.579Z,90.20
2018-12-17T16:38:33.488Z,90.40
2018-12-17T16:41:02.351Z,90.40
2018-12-17T16:43:32.177Z,90.30
2018-12-17T16:46:01.093Z,90.30
2018-12-17T16:48:30.032Z,90.30
2018-12-17T16:50:59.048Z,90.40
2018-12-17T16:53:27.912Z,90.60
2018-12-17T16:55:56.834Z,90.50
2018-12-17T16:58:25.869Z,90.50
2018-12-17T17:00:54.860Z,90.60
2018-12-17T17:03:23.760Z,90.60
2018-12-17T17:05:52.636Z,90.60
2018-12-17T17:08:21.541Z,90.50
2018-12-17T17:10:50.408Z,90.60
2018-12-17T17:13:19.396Z,90.60
2018-12-17T17:15:48.280Z,90.60
2018-12-17T17:18:17.136Z,90.60
2018-12-17T17:20:46.024Z,90.70
2018-12-17T17:23:14.948Z,90.80
2018-12-17T17:25:43.796Z,90.80
2018-12-17T17:28:12.653Z,90.90
2018-12-17T17:30:41.560Z,90.90
2018-12-17T17:33:10.434Z,90.90
2018-12-17T17:35:39.307Z,90.90
2018-12-17T17:38:08.320Z,91.30
2018-12-17T17:40:37.294Z,91.00
2018-12-17T17:43:06.240Z,91.00
2018-12-17T17:45:35.098Z,91.00
2018-12-17T17:48:16.768Z,90.90
2018-12-17T17:50:46.644Z,90.90
2018-12-17T17:53:15.570Z,90.90
2018-12-17T17:55:44.541Z,91.00
2018-12-17T17:58:13.469Z,91.10
2018-12-17T18:00:42.457Z,91.20
2018-12-17T18:03:11.314Z,91.10
2018-12-17T18:06:03.230Z,91.20
2018-12-17T18:08:44.033Z,91.00
2018-12-17T18:11:12.885Z,91.10
2018-12-17T18:13:42.716Z,91.00
2018-12-17T18:16:11.637Z,91.20
2018-12-17T18:18:40.501Z,91.30
2018-12-17T18:21:09.454Z,91.30
2018-12-17T18:23:38.375Z,91.30
2018-12-17T18:26:07.405Z,91.20
2018-12-17T18:28:36.328Z,91.30
2018-12-17T18:31:05.197Z,91.20
2018-12-17T18:33:34.185Z,91.30
2018-12-17T18:36:03.073Z,91.30
2018-12-17T18:38:31.934Z,91.40
2018-12-17T18:41:01.098Z,91.50
2018-12-17T18:43:30.080Z,91.60
2018-12-17T18:45:58.976Z,91.60
2018-12-17T18:48:27.943Z,91.60
2018-12-17T18:50:56.848Z,92.00
2018-12-17T18:53:25.712Z,91.50
2018-12-17T18:55:54.621Z,91.60
2018-12-17T18:58:23.541Z,91.60
2018-12-17T19:00:52.402Z,91.90
2018-12-17T19:03:21.349Z,91.70
2018-12-17T19:05:56.677Z,91.60
2018-12-17T19:08:29.260Z,91.80
2018-12-17T19:10:58.199Z,91.60
2018-12-17T19:16:36.460Z,91.50
2018-12-17T19:19:06.644Z,91.60
2018-12-17T19:21:35.993Z,91.60
2018-12-17T19:24:05.261Z,91.50
2018-12-17T19:26:34.223Z,91.40
2018-12-17T19:29:03.078Z,91.50
2018-12-17T19:31:35.608Z,91.60
2018-12-17T19:34:07.468Z,91.40
2018-12-17T19:37:00.605Z,91.50
2018-12-17T19:39:29.692Z,91.40
2018-12-17T19:41:58.615Z,91.50
2018-12-17T19:44:48.091Z,91.40
2018-12-17T19:47:21.898Z,91.40
2018-12-17T19:49:52.287Z,91.40
2018-12-17T19:52:21.178Z,91.40
2018-12-17T19:54:51.235Z,91.40
2018-12-17T19:57:20.456Z,91.30
2018-12-17T19:59:50.233Z,91.20
2018-12-17T20:02:19.881Z,91.30
2018-12-17T20:05:07.301Z,91.40
2018-12-17T20:07:37.472Z,91.30
2018-12-17T20:10:08.912Z,91.30
2018-12-17T20:12:37.981Z,91.30
2018-12-17T20:15:07.224Z,91.40
2018-12-17T20:17:36.372Z,91.40
2018-12-17T20:20:06.453Z,91.40
2018-12-17T20:22:35.570Z,91.40
2018-12-17T20:25:05.185Z,91.40
2018-12-17T20:27:34.293Z,91.40
2018-12-17T20:30:03.340Z,91.30
2018-12-17T20:32:32.542Z,91.40
2018-12-17T20:35:03.050Z,91.50
2018-12-17T20:40:09.162Z,91.50
2018-12-17T20:42:38.328Z,91.50
2018-12-17T20:45:08.857Z,91.40
2018-12-17T20:47:37.795Z,91.40
2018-12-17T20:50:07.618Z,91.40
2018-12-17T20:52:36.828Z,91.40
2018-12-17T20:55:05.972Z,91.40
2018-12-17T20:57:35.074Z,91.40
2018-12-17T21:03:02.010Z,91.40
2018-12-17T21:05:31.021Z,91.30
2018-12-17T21:08:01.933Z,91.40
2018-12-17T21:10:31.108Z,91.30
2018-12-17T21:13:00.159Z,91.30
2018-12-17T21:15:29.060Z,91.30
2018-12-17T21:18:02.647Z,91.30
2018-12-17T21:20:43.233Z,91.30
2018-12-17T21:23:16.602Z,91.40
2018-12-17T21:26:08.332Z,91.30
2018-12-17T21:28:40.901Z,91.50
2018-12-17T21:31:12.264Z,91.40
2018-12-17T21:33:47.383Z,91.30
2018-12-17T21:36:24.247Z,91.20
2018-12-17T21:38:59.581Z,91.00
2018-12-17T21:41:31.812Z,91.00
2018-12-17T21:47:10.361Z,90.90
2018-12-17T21:49:42.685Z,90.80
2018-12-17T21:52:14.665Z,90.90
2018-12-17T21:54:48.372Z,91.00
2018-12-17T21:57:29.472Z,90.90
2018-12-17T22:00:01.606Z,90.90
2018-12-17T22:02:36.180Z,91.00
2018-12-17T22:05:12.034Z,91.00
2018-12-17T22:07:44.706Z,90.90
2018-12-17T22:10:22.198Z,90.90
2018-12-17T22:12:54.791Z,91.00
2018-12-17T22:15:30.024Z,91.00
2018-12-17T22:18:05.291Z,91.00
2018-12-17T22:20:39.319Z,91.00
2018-12-17T22:23:20.867Z,91.10
2018-12-17T22:26:00.276Z,90.90
2018-12-17T22:28:32.543Z,90.90
2018-12-17T22:31:09.310Z,91.10
2018-12-17T22:33:48.253Z,91.10
2018-12-17T22:36:20.954Z,91.20
2018-12-17T22:38:51.803Z,91.10
2018-12-17T22:41:28.358Z,91.10
2018-12-17T22:44:10.553Z,91.20
2018-12-17T22:46:45.407Z,91.30
2018-12-17T22:49:20.153Z,91.50
2018-12-17T22:52:11.347Z,91.40
2018-12-17T22:54:40.283Z,91.50
2018-12-17T22:57:09.267Z,91.40
2018-12-17T22:59:38.107Z,91.30
2018-12-17T23:02:07.198Z,91.40
2018-12-17T23:04:36.117Z,91.40
2018-12-17T23:07:04.991Z,91.50
2018-12-17T23:09:45.033Z,91.50
2018-12-17T23:12:25.331Z,91.70
2018-12-17T23:15:05.485Z,91.70
2018-12-17T23:17:39.574Z,91.70
2018-12-17T23:20:09.994Z,91.80
2018-12-17T23:22:41.228Z,91.90
2018-12-17T23:25:12.116Z,91.80
2018-12-17T23:27:49.299Z,91.70
2018-12-17T23:30:20.486Z,91.80
2018-12-17T23:32:49.423Z,91.80
2018-12-17T23:35:18.376Z,91.70
2018-12-17T23:37:47.283Z,91.70
2018-12-17T23:40:16.155Z,91.70
2018-12-17T23:42:45.034Z,91.50
2018-12-17T23:45:19.889Z,91.40
2018-12-17T23:54:01.475Z,91.60
2018-12-17T23:56:30.451Z,91.60
2018-12-17T23:58:59.352Z,91.50
